Time;durP1;ratioP1;P1;durP2;ratioP2;P2;SDS_P1;SDS_P2;PMS_P1;PMS_P2;Temp;Humidity;BMP_temperature;BMP_pressure;BME280_temperature;BME280_humidity;BME280_pressure;Samples;Min_cycle;Max_cycle;Signal;HPM_P1;HPM_P2
2022/03/04 00:01:56;;;;;;;;;;;;;;;;;;5114234;28;19920;-78
2022/03/04 00:04:21;;;;;;;;;;;;;;;;;;5116120;28;19924;-77
2022/03/04 00:06:46;;;;;;;;;;;;;;;;;;5114455;28;20002;-78
2022/03/04 00:09:12;;;;;;;;;;;;;;;;;;5117156;28;19999;-78
2022/03/04 00:11:37;;;;;;;;;;;;;;;;;;5118263;28;19958;-78
2022/03/04 00:14:03;;;;;;;;;;;;;;;;;;5119546;28;19961;-78
2022/03/04 00:16:28;;;;;;;;;;;;;;;;;;5116855;28;19968;-78
2022/03/04 00:19:10;;;;;;;;;;;;;;;;;;5117623;28;20389;-79
2022/03/04 00:21:39;;;;;;;;;;;;;;;;;;5116634;28;19920;-78
2022/03/04 00:24:06;;;;;;;;;;;;;;;;;;5117304;28;19920;-78
2022/03/04 00:26:31;;;;;;;;;;;;;;;;;;5117477;28;19992;-78
2022/03/04 00:28:56;;;;;;;;;;;;;;;;;;5116877;28;19959;-79
2022/03/04 00:31:22;;;;;;;;;;;;;;;;;;5115628;28;19926;-78
2022/03/04 00:33:47;;;;;;;;;;;;;;;;;;5117413;28;20421;-79
2022/03/04 00:36:13;;;;;;;;;;;;;;;;;;5117804;28;20270;-79
2022/03/04 00:38:38;;;;;;;;;;;;;;;;;;5118807;28;19915;-79
2022/03/04 00:41:03;;;;;;;;;;;;;;;;;;5118071;28;19919;-79
2022/03/04 00:43:29;;;;;;;;;;;;;;;;;;5118350;28;19919;-79
2022/03/04 00:45:54;;;;;;;;;;;;;;;;;;5118216;27;19919;-78
2022/03/04 00:48:19;;;;;;;;;;;;;;;;;;5117111;28;19954;-78
2022/03/04 00:50:45;;;;;;;;;;;;;;;;;;5117602;28;19963;-78
2022/03/04 00:53:10;;;;;;;;;;;;;;;;;;5116333;28;19916;-78
2022/03/04 00:55:37;;;;;;;;;;;;;;;;;;5117865;28;19922;-79
2022/03/04 00:58:03;;;;;;;;;;;;;;;;;;5117282;28;19915;-78
2022/03/04 01:00:29;;;;;;;;;;;;;;;;;;5117402;28;20290;-78
2022/03/04 01:02:54;;;;;;;;;;;;;;;;;;5116388;28;20167;-78
2022/03/04 01:05:19;;;;;;;;;;;;;;;;;;5117457;28;19922;-78
2022/03/04 01:07:44;;;;;;;;;;;;;;;;;;5117358;28;19920;-79
2022/03/04 01:10:10;;;;;;;;;;;;;;;;;;5117031;28;19942;-79
2022/03/04 01:12:36;;;;;;;;;;;;;;;;;;5117078;28;19915;-78
2022/03/04 01:15:02;;;;;;;;;;;;;;;;;;5116938;28;19922;-78
2022/03/04 01:17:27;;;;;;;;;;;;;;;;;;5116949;28;19953;-78
2022/03/04 01:19:52;;;;;;;;;;;;;;;;;;5115574;28;20369;-79
2022/03/04 01:22:18;;;;;;;;;;;;;;;;;;5116965;28;19919;-78
2022/03/04 01:24:43;;;;;;;;;;;;;;;;;;5117272;28;19980;-79
2022/03/04 01:27:08;;;;;;;;;;;;;;;;;;5115907;28;20329;-79
2022/03/04 01:29:34;;;;;;;;;;;;;;;;;;5115498;28;19942;-78
2022/03/04 01:31:59;;;;;;;;;;;;;;;;;;5115856;28;20408;-78
2022/03/04 01:34:24;;;;;;;;;;;;;;;;;;5117257;28;19965;-79
2022/03/04 01:36:50;;;;;;;;;;;;;;;;;;5117113;28;19959;-78
2022/03/04 01:39:15;;;;;;;;;;;;;;;;;;5116998;28;19919;-78
2022/03/04 01:41:41;;;;;;;;;;;;;;;;;;5115473;28;20320;-78
2022/03/04 01:44:06;;;;;;;;;;;;;;;;;;5115213;28;19915;-79
2022/03/04 01:46:32;;;;;;;;;;;;;;;;;;5116264;28;19920;-79
2022/03/04 01:48:57;;;;;;;;;;;;;;;;;;5117394;28;19912;-79
2022/03/04 01:51:23;;;;;;;;;;;;;;;;;;5117818;28;19919;-79
2022/03/04 01:53:51;;;;;;;;;;;;;;;;;;5115659;28;21466;-79
2022/03/04 01:56:16;;;;;;;;;;;;;;;;;;5117961;28;19943;-79
2022/03/04 01:58:41;;;;;;;;;;;;;;;;;;5117886;28;20026;-79
2022/03/04 02:01:07;;;;;;;;;;;;;;;;;;5115625;28;19919;-79
2022/03/04 02:03:33;;;;;;;;;;;;;;;;;;5117425;28;19916;-79
2022/03/04 02:05:58;;;;;;;;;;;;;;;;;;5117518;28;19916;-79
2022/03/04 02:08:23;;;;;;;;;;;;;;;;;;5117798;28;19916;-79
2022/03/04 02:10:48;;;;;;;;;;;;;;;;;;5117547;28;19923;-79
2022/03/04 02:13:15;;;;;;;;;;;;;;;;;;5116122;27;19957;-79
2022/03/04 02:15:44;;;;;;;;;;;;;;;;;;5098184;28;19962;-78
2022/03/04 02:18:13;;;;;;;;;;;;;;;;;;5117179;28;19965;-78
2022/03/04 02:20:40;;;;;;;;;;;;;;;;;;5116515;28;19920;-79
2022/03/04 02:23:05;;;;;;;;;;;;;;;;;;5115479;28;20006;-78
2022/03/04 02:25:31;;;;;;;;;;;;;;;;;;5115500;28;19955;-78
2022/03/04 02:27:56;;;;;;;;;;;;;;;;;;5114795;28;19915;-79
2022/03/04 02:30:21;;;;;;;;;;;;;;;;;;5116119;28;20331;-78
2022/03/04 02:32:47;;;;;;;;;;;;;;;;;;5116343;28;20365;-78
2022/03/04 02:35:13;;;;;;;;;;;;;;;;;;5114828;28;19941;-78
2022/03/04 02:37:39;;;;;;;;;;;;;;;;;;5116043;28;20418;-79
2022/03/04 02:40:05;;;;;;;;;;;;;;;;;;5116451;28;19930;-78
2022/03/04 02:42:31;;;;;;;;;;;;;;;;;;5124579;28;19915;-78
2022/03/04 02:44:56;;;;;;;;;;;;;;;;;;5137123;27;20018;-79
2022/03/04 02:47:21;;;;;;;;;;;;;;;;;;5135199;27;19915;-79
2022/03/04 02:49:47;;;;;;;;;;;;;;;;;;5136461;27;19920;-79
2022/03/04 02:52:12;;;;;;;;;;;;;;;;;;5135978;27;20285;-78
2022/03/04 02:54:37;;;;;;;;;;;;;;;;;;5137564;27;20288;-78
2022/03/04 02:57:03;;;;;;;;;;;;;;;;;;5140271;27;19937;-79
2022/03/04 02:59:28;;;;;;;;;;;;;;;;;;5140861;27;20022;-79
2022/03/04 03:01:53;;;;;;;;;;;;;;;;;;5140815;27;19933;-79
2022/03/04 03:04:19;;;;;;;;;;;;;;;;;;5140432;27;20345;-79
2022/03/04 03:06:44;;;;;;;;;;;;;;;;;;5121677;27;19930;-79
2022/03/04 03:09:10;;;;;;;;;;;;;;;;;;5140216;27;19937;-78
2022/03/04 03:11:36;;;;;;;;;;;;;;;;;;5138233;27;19999;-78
2022/03/04 03:14:01;;;;;;;;;;;;;;;;;;5119074;28;20296;-78
2022/03/04 03:16:27;;;;;;;;;;;;;;;;;;5121077;28;19973;-80
2022/03/04 03:18:53;;;;;;;;;;;;;;;;;;5119522;28;20266;-80
2022/03/04 03:21:18;;;;;;;;;;;;;;;;;;5118505;28;19920;-80
2022/03/04 03:23:45;;;;;;;;;;;;;;;;;;5118207;28;19937;-80
2022/03/04 03:26:10;;;;;;;;;;;;;;;;;;5121398;28;19985;-82
2022/03/04 03:28:35;;;;;;;;;;;;;;;;;;5099903;28;20383;-86
2022/03/04 03:31:01;;;;;;;;;;;;;;;;;;5096714;28;19939;-86
2022/03/04 03:33:26;;;;;;;;;;;;;;;;;;5078978;28;20298;-86
2022/03/04 03:35:54;;;;;;;;;;;;;;;;;;5084442;28;19916;-82
2022/03/04 03:38:21;;;;;;;;;;;;;;;;;;5103616;28;19993;-82
2022/03/04 03:40:46;;;;;;;;;;;;;;;;;;5103413;28;19920;-82
2022/03/04 03:43:12;;;;;;;;;;;;;;;;;;5101785;28;19934;-82
2022/03/04 03:45:37;;;;;;;;;;;;;;;;;;5104145;28;19939;-83
2022/03/04 03:48:02;;;;;;;;;;;;;;;;;;5103180;28;20254;-83
2022/03/04 03:50:28;;;;;;;;;;;;;;;;;;5102194;28;19920;-83
2022/03/04 03:52:53;;;;;;;;;;;;;;;;;;5106228;28;19923;-85
2022/03/04 03:55:18;;;;;;;;;;;;;;;;;;5101179;28;19938;-83
2022/03/04 03:57:44;;;;;;;;;;;;;;;;;;5115031;28;19916;-84
2022/03/04 04:00:10;;;;;;;;;;;;;;;;;;5101707;28;19920;-84
2022/03/04 04:02:38;;;;;;;;;;;;;;;;;;5102889;28;20091;-84
2022/03/04 04:05:04;;;;;;;;;;;;;;;;;;5114112;28;20002;-84
2022/03/04 04:07:29;;;;;;;;;;;;;;;;;;5105607;28;19916;-79
2022/03/04 04:09:54;;;;;;;;;;;;;;;;;;5098880;28;20014;-79
2022/03/04 04:12:20;;;;;;;;;;;;;;;;;;5106201;28;19908;-79
2022/03/04 04:14:45;;;;;;;;;;;;;;;;;;5120930;28;19920;-79
2022/03/04 04:17:11;;;;;;;;;;;;;;;;;;5120420;28;19926;-79
2022/03/04 04:19:36;;;;;;;;;;;;;;;;;;5119519;28;20022;-79
2022/03/04 04:22:01;;;;;;;;;;;;;;;;;;5119905;28;20004;-79
2022/03/04 04:24:27;;;;;;;;;;;;;;;;;;5119265;28;19916;-79
2022/03/04 04:26:52;;;;;;;;;;;;;;;;;;5119798;28;19916;-80
2022/03/04 04:29:18;;;;;;;;;;;;;;;;;;5119421;28;20289;-79
2022/03/04 04:31:43;;;;;;;;;;;;;;;;;;5121290;28;19916;-79
2022/03/04 04:34:08;;;;;;;;;;;;;;;;;;5120098;28;20365;-78
2022/03/04 04:36:34;;;;;;;;;;;;;;;;;;5120674;28;19923;-79
2022/03/04 04:38:59;;;;;;;;;;;;;;;;;;5120974;28;20044;-78
2022/03/04 04:41:25;;;;;;;;;;;;;;;;;;5120080;28;19950;-79
2022/03/04 04:43:50;;;;;;;;;;;;;;;;;;5118146;28;19915;-79
2022/03/04 04:46:16;;;;;;;;;;;;;;;;;;5118280;27;19941;-78
2022/03/04 04:48:41;;;;;;;;;;;;;;;;;;5117248;28;20349;-79
2022/03/04 04:51:06;;;;;;;;;;;;;;;;;;5117539;28;19919;-79
2022/03/04 04:53:32;;;;;;;;;;;;;;;;;;5116574;28;19916;-78
2022/03/04 04:55:58;;;;;;;;;;;;;;;;;;5118738;28;19916;-79
2022/03/04 04:58:24;;;;;;;;;;;;;;;;;;5117443;28;19916;-78
2022/03/04 05:00:53;;;;;;;;;;;;;;;;;;5117043;28;19919;-78
2022/03/04 05:03:22;;;;;;;;;;;;;;;;;;5117124;28;20033;-78
2022/03/04 05:05:48;;;;;;;;;;;;;;;;;;5116476;28;19940;-78
2022/03/04 05:08:13;;;;;;;;;;;;;;;;;;5115612;28;20393;-78
2022/03/04 05:10:39;;;;;;;;;;;;;;;;;;5115476;28;19916;-78
2022/03/04 05:13:04;;;;;;;;;;;;;;;;;;5116373;28;19969;-78
2022/03/04 05:15:29;;;;;;;;;;;;;;;;;;5116628;28;20023;-79
2022/03/04 05:17:55;;;;;;;;;;;;;;;;;;5116413;28;20449;-78
2022/03/04 05:20:20;;;;;;;;;;;;;;;;;;5117256;28;19920;-78
2022/03/04 05:22:45;;;;;;;;;;;;;;;;;;5117550;28;19941;-78
2022/03/04 05:25:11;;;;;;;;;;;;;;;;;;5116322;28;19974;-78
2022/03/04 05:27:36;;;;;;;;;;;;;;;;;;5115623;28;19916;-79
2022/03/04 05:30:02;;;;;;;;;;;;;;;;;;5116614;28;19998;-78
2022/03/04 05:32:28;;;;;;;;;;;;;;;;;;5116565;28;19970;-78
2022/03/04 05:34:53;;;;;;;;;;;;;;;;;;5115116;28;19916;-79
2022/03/04 05:37:18;;;;;;;;;;;;;;;;;;5116467;28;19922;-79
2022/03/04 05:39:43;;;;;;;;;;;;;;;;;;5116668;28;19979;-78
2022/03/04 05:42:09;;;;;;;;;;;;;;;;;;5116030;28;19920;-79
2022/03/04 05:44:34;;;;;;;;;;;;;;;;;;5117022;27;19961;-78
2022/03/04 05:46:59;;;;;;;;;;;;;;;;;;5116187;28;20014;-79
2022/03/04 05:49:25;;;;;;;;;;;;;;;;;;5116592;28;20025;-79
2022/03/04 05:51:50;;;;;;;;;;;;;;;;;;5116622;27;19919;-79
2022/03/04 05:54:16;;;;;;;;;;;;;;;;;;5116043;28;19920;-78
2022/03/04 05:56:41;;;;;;;;;;;;;;;;;;5116307;28;19916;-79
2022/03/04 05:59:07;;;;;;;;;;;;;;;;;;5114603;28;19916;-79
2022/03/04 06:01:32;;;;;;;;;;;;;;;;;;5117253;28;19920;-79
2022/03/04 06:03:58;;;;;;;;;;;;;;;;;;5117566;28;19915;-79
2022/03/04 06:06:25;;;;;;;;;;;;;;;;;;5116380;28;20006;-79
2022/03/04 06:08:50;;;;;;;;;;;;;;;;;;5117625;28;20011;-78
2022/03/04 06:11:15;;;;;;;;;;;;;;;;;;5117125;28;19989;-79
2022/03/04 06:13:41;;;;;;;;;;;;;;;;;;5117454;28;20011;-79
2022/03/04 06:16:09;;;;;;;;;;;;;;;;;;5116971;28;20294;-80
2022/03/04 06:18:34;;;;;;;;;;;;;;;;;;5117248;28;19923;-79
2022/03/04 06:20:59;;;;;;;;;;;;;;;;;;5116590;28;20269;-79
2022/03/04 06:23:25;;;;;;;;;;;;;;;;;;5117530;28;19923;-79
2022/03/04 06:25:50;;;;;;;;;;;;;;;;;;5116437;28;20396;-79
2022/03/04 06:28:16;;;;;;;;;;;;;;;;;;5119216;28;19923;-79
2022/03/04 06:30:41;;;;;;;;;;;;;;;;;;5121457;28;19915;-79
2022/03/04 06:35:50;;;;;;;;;;;;;;;;;;5121268;28;19970;-79
2022/03/04 06:38:17;;;;;;;;;;;;;;;;;;5121311;28;19916;-78
2022/03/04 06:40:42;;;;;;;;;;;;;;;;;;5121224;28;19919;-79
2022/03/04 06:43:08;;;;;;;;;;;;;;;;;;5119358;28;20276;-79
2022/03/04 06:45:33;;;;;;;;;;;;;;;;;;5119750;28;19915;-79
2022/03/04 06:47:59;;;;;;;;;;;;;;;;;;5118996;28;19916;-79
2022/03/04 06:50:24;;;;;;;;;;;;;;;;;;5120050;27;19925;-79
2022/03/04 06:52:53;;;;;;;;;;;;;;;;;;5121096;28;19915;-79
2022/03/04 06:55:18;;;;;;;;;;;;;;;;;;5120254;28;19916;-79
2022/03/04 06:57:43;;;;;;;;;;;;;;;;;;5119409;28;19923;-79
2022/03/04 07:00:10;;;;;;;;;;;;;;;;;;5120845;28;19915;-79
2022/03/04 07:02:37;;;;;;;;;;;;;;;;;;5120464;28;19920;-79
2022/03/04 07:05:05;;;;;;;;;;;;;;;;;;5120922;28;19954;-79
2022/03/04 07:07:31;;;;;;;;;;;;;;;;;;5120418;28;19919;-79
2022/03/04 07:09:56;;;;;;;;;;;;;;;;;;5120425;28;19968;-79
2022/03/04 07:12:21;;;;;;;;;;;;;;;;;;5111877;28;20255;-79
2022/03/04 07:14:47;;;;;;;;;;;;;;;;;;5098270;28;19938;-79
2022/03/04 07:17:12;;;;;;;;;;;;;;;;;;5099435;28;20281;-79
2022/03/04 07:19:38;;;;;;;;;;;;;;;;;;5099355;28;19916;-79
2022/03/04 07:22:03;;;;;;;;;;;;;;;;;;5099457;28;19920;-79
2022/03/04 07:24:29;;;;;;;;;;;;;;;;;;5109892;27;19931;-79
2022/03/04 07:26:54;;;;;;;;;;;;;;;;;;5130300;27;20418;-79
2022/03/04 07:29:19;;;;;;;;;;;;;;;;;;5132429;27;20019;-79
2022/03/04 07:31:44;;;;;;;;;;;;;;;;;;5120371;28;20289;-80
2022/03/04 07:34:10;;;;;;;;;;;;;;;;;;5131077;27;19949;-82
2022/03/04 07:36:35;;;;;;;;;;;;;;;;;;5127841;27;19952;-79
2022/03/04 07:39:00;;;;;;;;;;;;;;;;;;5119422;28;19915;-79
2022/03/04 07:41:25;;;;;;;;;;;;;;;;;;5119168;28;19970;-81
2022/03/04 07:43:51;;;;;;;;;;;;;;;;;;5120607;28;19916;-82
2022/03/04 07:46:17;;;;;;;;;;;;;;;;;;5120504;28;19975;-80
2022/03/04 07:48:43;;;;;;;;;;;;;;;;;;5117919;28;19923;-81
2022/03/04 07:51:08;;;;;;;;;;;;;;;;;;5120302;28;19919;-79
2022/03/04 07:53:34;;;;;;;;;;;;;;;;;;5120149;28;20278;-80
2022/03/04 07:55:59;;;;;;;;;;;;;;;;;;5101375;28;19916;-79
2022/03/04 07:58:24;;;;;;;;;;;;;;;;;;5119135;28;19915;-78
2022/03/04 08:00:50;;;;;;;;;;;;;;;;;;5114493;28;19946;-84
2022/03/04 08:03:15;;;;;;;;;;;;;;;;;;5106137;28;20038;-78
2022/03/04 08:05:40;;;;;;;;;;;;;;;;;;5108292;28;19916;-80
2022/03/04 08:08:06;;;;;;;;;;;;;;;;;;5108429;28;19916;-83
2022/03/04 08:10:31;;;;;;;;;;;;;;;;;;5102382;28;19916;-77
2022/03/04 08:12:56;;;;;;;;;;;;;;;;;;5107392;28;20493;-84
2022/03/04 08:15:22;;;;;;;;;;;;;;;;;;5109455;28;19971;-77
2022/03/04 08:17:47;;;;;;;;;;;;;;;;;;5102285;28;19916;-78
2022/03/04 08:20:12;;;;;;;;;;;;;;;;;;5098020;28;20365;-82
2022/03/04 08:22:38;;;;;;;;;;;;;;;;;;5110530;28;19923;-81
2022/03/04 08:25:07;;;;;;;;;;;;;;;;;;5097478;28;19916;-77
2022/03/04 08:27:36;;;;;;;;;;;;;;;;;;5105445;28;20342;-78
2022/03/04 08:30:01;;;;;;;;;;;;;;;;;;5104567;28;19916;-79
2022/03/04 08:32:26;;;;;;;;;;;;;;;;;;5103132;28;19916;-80
2022/03/04 08:34:52;;;;;;;;;;;;;;;;;;5103266;28;19969;-83
2022/03/04 08:37:17;;;;;;;;;;;;;;;;;;5100859;28;19916;-79
2022/03/04 08:39:42;;;;;;;;;;;;;;;;;;5097085;28;20266;-79
2022/03/04 08:42:07;;;;;;;;;;;;;;;;;;5099821;28;19919;-79
2022/03/04 08:44:33;;;;;;;;;;;;;;;;;;5104976;28;19961;-79
2022/03/04 08:46:58;;;;;;;;;;;;;;;;;;5121024;28;19955;-81
2022/03/04 08:49:23;;;;;;;;;;;;;;;;;;5116531;28;20318;-81
2022/03/04 08:51:49;;;;;;;;;;;;;;;;;;5118259;28;19916;-80
2022/03/04 08:54:14;;;;;;;;;;;;;;;;;;5119318;28;19980;-83
2022/03/04 08:56:39;;;;;;;;;;;;;;;;;;5117529;28;19966;-82
2022/03/04 08:59:05;;;;;;;;;;;;;;;;;;5119173;28;19926;-82
2022/03/04 09:01:30;;;;;;;;;;;;;;;;;;5119246;28;19920;-82
2022/03/04 09:03:55;;;;;;;;;;;;;;;;;;5113712;28;19915;-83
2022/03/04 09:06:21;;;;;;;;;;;;;;;;;;5099590;28;20420;-83
2022/03/04 09:08:47;;;;;;;;;;;;;;;;;;5104748;28;20018;-80
2022/03/04 09:11:12;;;;;;;;;;;;;;;;;;5100884;28;19912;-81
2022/03/04 09:13:37;;;;;;;;;;;;;;;;;;5100518;28;19916;-80
2022/03/04 09:16:03;;;;;;;;;;;;;;;;;;5099605;28;19916;-80
2022/03/04 09:18:29;;;;;;;;;;;;;;;;;;5101957;28;19923;-80
2022/03/04 09:20:54;;;;;;;;;;;;;;;;;;5107390;28;19966;-81
2022/03/04 09:23:20;;;;;;;;;;;;;;;;;;5098705;28;19916;-83
2022/03/04 09:25:45;;;;;;;;;;;;;;;;;;5103175;28;19965;-82
2022/03/04 09:28:10;;;;;;;;;;;;;;;;;;5099362;28;19975;-83
2022/03/04 09:30:36;;;;;;;;;;;;;;;;;;5099043;28;20289;-81
2022/03/04 09:33:02;;;;;;;;;;;;;;;;;;5098321;28;19916;-83
2022/03/04 09:35:27;;;;;;;;;;;;;;;;;;5099837;28;19923;-86
2022/03/04 09:37:53;;;;;;;;;;;;;;;;;;5097771;28;19967;-83
2022/03/04 09:40:18;;;;;;;;;;;;;;;;;;5098882;28;19959;-86
2022/03/04 09:42:43;;;;;;;;;;;;;;;;;;5122448;27;19922;-84
2022/03/04 09:45:09;;;;;;;;;;;;;;;;;;5139650;27;19915;-79
2022/03/04 09:47:34;;;;;;;;;;;;;;;;;;5120329;27;19920;-82
2022/03/04 09:50:01;;;;;;;;;;;;;;;;;;5101126;28;19920;-87
2022/03/04 09:52:26;;;;;;;;;;;;;;;;;;5145415;27;19919;-82
2022/03/04 09:54:52;;;;;;;;;;;;;;;;;;5139813;27;20277;-81
2022/03/04 09:57:18;;;;;;;;;;;;;;;;;;5097926;28;19916;-83
2022/03/04 09:59:44;;;;;;;;;;;;;;;;;;5113974;28;19971;-79
2022/03/04 10:02:12;;;;;;;;;;;;;;;;;;5117825;28;19942;-80
2022/03/04 10:04:38;;;;;;;;;;;;;;;;;;5116901;28;19912;-82
2022/03/04 10:07:13;;;;;;;;;;;;;;;;;;5106095;28;20015;-85
2022/03/04 10:09:43;;;;;;;;;;;;;;;;;;5116131;28;19937;-86
2022/03/04 10:12:09;;;;;;;;;;;;;;;;;;5106955;28;20338;-84
2022/03/04 10:15:00;;;;;;;;;;;;;;;;;;5080488;28;19977;-84
2022/03/04 10:17:27;;;;;;;;;;;;;;;;;;5118668;28;19968;-85
2022/03/04 10:19:54;;;;;;;;;;;;;;;;;;5116312;28;19916;-85
2022/03/04 10:22:19;;;;;;;;;;;;;;;;;;5138328;27;19919;-85
2022/03/04 10:24:45;;;;;;;;;;;;;;;;;;5138180;28;19915;-88
2022/03/04 10:27:12;;;;;;;;;;;;;;;;;;5104955;28;20374;-87
2022/03/04 10:29:42;;;;;;;;;;;;;;;;;;5095670;28;20401;-86
2022/03/04 10:32:07;;;;;;;;;;;;;;;;;;5114009;28;19922;-86
2022/03/04 10:34:45;;;;;;;;;;;;;;;;;;5121265;28;19916;-84
2022/03/04 10:37:11;;;;;;;;;;;;;;;;;;5121404;28;19916;-83
2022/03/04 10:39:55;;;;;;;;;;;;;;;;;;5097695;28;19969;-84
2022/03/04 10:42:36;;;;;;;;;;;;;;;;;;5107866;28;20431;-87
2022/03/04 10:45:10;;;;;;;;;;;;;;;;;;5116781;28;19938;-85
2022/03/04 10:47:49;;;;;;;;;;;;;;;;;;5117864;28;19927;-83
2022/03/04 10:50:15;;;;;;;;;;;;;;;;;;5101358;28;19920;-79
2022/03/04 10:52:50;;;;;;;;;;;;;;;;;;5097939;28;20512;-87
2022/03/04 10:55:24;;;;;;;;;;;;;;;;;;5098311;28;19958;-82
2022/03/04 10:57:50;;;;;;;;;;;;;;;;;;5098782;28;20292;-80
2022/03/04 11:00:22;;;;;;;;;;;;;;;;;;5099925;28;19952;-85
2022/03/04 11:02:48;;;;;;;;;;;;;;;;;;5103150;28;19923;-86
2022/03/04 11:05:14;;;;;;;;;;;;;;;;;;5139075;28;20265;-83
2022/03/04 11:07:42;;;;;;;;;;;;;;;;;;5105502;27;19916;-86
2022/03/04 11:10:08;;;;;;;;;;;;;;;;;;5137416;28;19915;-85
2022/03/04 11:12:34;;;;;;;;;;;;;;;;;;5136943;28;19957;-83
2022/03/04 11:15:00;;;;;;;;;;;;;;;;;;5099013;28;19986;-85
2022/03/04 11:17:25;;;;;;;;;;;;;;;;;;5107146;28;20380;-83
2022/03/04 11:19:52;;;;;;;;;;;;;;;;;;5118564;28;19915;-83
2022/03/04 11:22:17;;;;;;;;;;;;;;;;;;5127426;27;19919;-86
2022/03/04 11:24:43;;;;;;;;;;;;;;;;;;5118002;27;19929;-86
2022/03/04 11:27:10;;;;;;;;;;;;;;;;;;5103295;28;19916;-86
2022/03/04 11:29:36;;;;;;;;;;;;;;;;;;5112110;28;19916;-85
2022/03/04 11:32:03;;;;;;;;;;;;;;;;;;5084550;28;19916;-86
2022/03/04 11:34:35;;;;;;;;;;;;;;;;;;5109939;28;19916;-86
2022/03/04 11:37:02;;;;;;;;;;;;;;;;;;5110104;28;19999;-86
2022/03/04 11:39:27;;;;;;;;;;;;;;;;;;5098023;28;19916;-87
2022/03/04 11:41:53;;;;;;;;;;;;;;;;;;5113424;28;19927;-87
2022/03/04 11:44:22;;;;;;;;;;;;;;;;;;5097589;28;19923;-86
2022/03/04 11:46:51;;;;;;;;;;;;;;;;;;5099655;28;19917;-87
2022/03/04 11:49:32;;;;;;;;;;;;;;;;;;5083858;28;19919;-87
2022/03/04 11:52:10;;;;;;;;;;;;;;;;;;5083596;28;20399;-86
2022/03/04 11:54:42;;;;;;;;;;;;;;;;;;5134296;27;19999;-87
2022/03/04 11:57:15;;;;;;;;;;;;;;;;;;5093210;28;19916;-87
2022/03/04 11:59:48;;;;;;;;;;;;;;;;;;5089915;28;20279;-86
2022/03/04 12:02:40;;;;;;;;;;;;;;;;;;5101699;28;20358;-87
2022/03/04 12:05:12;;;;;;;;;;;;;;;;;;5098022;28;20014;-87
2022/03/04 12:07:37;;;;;;;;;;;;;;;;;;5102591;28;20388;-87
2022/03/04 12:10:07;;;;;;;;;;;;;;;;;;5109314;28;19979;-86
2022/03/04 12:12:32;;;;;;;;;;;;;;;;;;5125461;28;19919;-87
2022/03/04 12:15:16;;;;;;;;;;;;;;;;;;5104802;28;20293;-86
2022/03/04 12:17:51;;;;;;;;;;;;;;;;;;5121882;28;19915;-87
2022/03/04 12:20:25;;;;;;;;;;;;;;;;;;5119190;28;20018;-87
2022/03/04 12:22:56;;;;;;;;;;;;;;;;;;5118591;28;19920;-87
2022/03/04 12:25:21;;;;;;;;;;;;;;;;;;5118783;28;19919;-86
2022/03/04 12:27:53;;;;;;;;;;;;;;;;;;5091671;28;20318;-87
2022/03/04 12:30:21;;;;;;;;;;;;;;;;;;5123331;28;20081;-87
2022/03/04 12:32:48;;;;;;;;;;;;;;;;;;5121162;28;19922;-87
2022/03/04 12:35:16;;;;;;;;;;;;;;;;;;5123328;28;20462;-87
2022/03/04 12:37:42;;;;;;;;;;;;;;;;;;5122186;28;19934;-87
2022/03/04 12:40:08;;;;;;;;;;;;;;;;;;5121956;28;19975;-87
2022/03/04 12:42:33;;;;;;;;;;;;;;;;;;5120195;28;20347;-87
2022/03/04 12:44:59;;;;;;;;;;;;;;;;;;5120389;28;19915;-87
2022/03/04 12:47:24;;;;;;;;;;;;;;;;;;5103287;28;19916;-87
2022/03/04 12:49:52;;;;;;;;;;;;;;;;;;5121353;28;19920;-86
2022/03/04 12:52:18;;;;;;;;;;;;;;;;;;5118189;28;19916;-86
2022/03/04 12:54:44;;;;;;;;;;;;;;;;;;5117201;28;19938;-86
2022/03/04 12:57:10;;;;;;;;;;;;;;;;;;5116447;28;20478;-87
2022/03/04 12:59:47;;;;;;;;;;;;;;;;;;5129783;27;19931;-86
2022/03/04 13:02:12;;;;;;;;;;;;;;;;;;5121714;27;20300;-86
2022/03/04 13:04:37;;;;;;;;;;;;;;;;;;5112872;28;19916;-86
2022/03/04 13:07:03;;;;;;;;;;;;;;;;;;5101374;28;19963;-87
2022/03/04 13:09:28;;;;;;;;;;;;;;;;;;5104616;28;19939;-86
2022/03/04 13:11:54;;;;;;;;;;;;;;;;;;5116650;28;20304;-86
2022/03/04 13:14:20;;;;;;;;;;;;;;;;;;5116442;28;19916;-87
2022/03/04 13:16:47;;;;;;;;;;;;;;;;;;5115708;28;20295;-86
2022/03/04 13:19:16;;;;;;;;;;;;;;;;;;5116654;28;19916;-86
2022/03/04 13:21:49;;;;;;;;;;;;;;;;;;5136126;27;19947;-86
2022/03/04 13:24:17;;;;;;;;;;;;;;;;;;5137488;27;19954;-86
2022/03/04 13:27:09;;;;;;;;;;;;;;;;;;5111228;27;19922;-86
2022/03/04 13:29:41;;;;;;;;;;;;;;;;;;5095969;28;19920;-86
2022/03/04 13:32:06;;;;;;;;;;;;;;;;;;5093913;28;20385;-86
2022/03/04 13:34:32;;;;;;;;;;;;;;;;;;5095485;28;19923;-86
2022/03/04 13:37:00;;;;;;;;;;;;;;;;;;5103969;28;19922;-86
2022/03/04 13:39:30;;;;;;;;;;;;;;;;;;5113873;28;19934;-86
2022/03/04 13:42:07;;;;;;;;;;;;;;;;;;5103643;27;19940;-87
2022/03/04 13:44:33;;;;;;;;;;;;;;;;;;5121036;28;20014;-86
2022/03/04 13:47:06;;;;;;;;;;;;;;;;;;5100807;28;20063;-87
2022/03/04 13:49:41;;;;;;;;;;;;;;;;;;5118172;28;19920;-86
2022/03/04 13:52:07;;;;;;;;;;;;;;;;;;5116051;28;19926;-86
2022/03/04 13:54:49;;;;;;;;;;;;;;;;;;5116772;28;19975;-86
2022/03/04 13:57:33;;;;;;;;;;;;;;;;;;5110259;28;19938;-86
2022/03/04 14:00:00;;;;;;;;;;;;;;;;;;5097715;28;20404;-85
2022/03/04 14:02:28;;;;;;;;;;;;;;;;;;5101515;28;19959;-86
2022/03/04 14:04:54;;;;;;;;;;;;;;;;;;5097201;28;19912;-79
2022/03/04 14:07:20;;;;;;;;;;;;;;;;;;5117132;28;19922;-81
2022/03/04 14:09:48;;;;;;;;;;;;;;;;;;5120230;28;19923;-81
2022/03/04 14:12:14;;;;;;;;;;;;;;;;;;5102720;28;19931;-84
2022/03/04 14:14:39;;;;;;;;;;;;;;;;;;5102654;28;19956;-84
2022/03/04 14:17:05;;;;;;;;;;;;;;;;;;5115194;28;19920;-83
2022/03/04 14:19:30;;;;;;;;;;;;;;;;;;5119565;27;20301;-82
2022/03/04 14:21:55;;;;;;;;;;;;;;;;;;5121517;28;19972;-87
2022/03/04 14:24:20;;;;;;;;;;;;;;;;;;5119811;28;20322;-86
2022/03/04 14:26:46;;;;;;;;;;;;;;;;;;5105914;28;19915;-86
2022/03/04 14:29:11;;;;;;;;;;;;;;;;;;5123246;28;19916;-86
2022/03/04 14:31:37;;;;;;;;;;;;;;;;;;5123810;28;20547;-85
2022/03/04 14:34:02;;;;;;;;;;;;;;;;;;5126644;28;19924;-84
2022/03/04 14:36:28;;;;;;;;;;;;;;;;;;5125534;28;19961;-86
2022/03/04 14:38:55;;;;;;;;;;;;;;;;;;5122993;28;19915;-88
2022/03/04 14:41:20;;;;;;;;;;;;;;;;;;5109500;28;20271;-86
2022/03/04 14:43:45;;;;;;;;;;;;;;;;;;5124842;28;19947;-87
2022/03/04 14:46:11;;;;;;;;;;;;;;;;;;5117057;28;20049;-87
2022/03/04 14:48:38;;;;;;;;;;;;;;;;;;5099647;28;19915;-87
2022/03/04 14:51:04;;;;;;;;;;;;;;;;;;5084384;28;19927;-87
2022/03/04 14:53:29;;;;;;;;;;;;;;;;;;5068516;28;19920;-87
2022/03/04 14:55:55;;;;;;;;;;;;;;;;;;5084775;28;19924;-86
2022/03/04 14:58:20;;;;;;;;;;;;;;;;;;5109192;28;20343;-86
2022/03/04 15:00:46;;;;;;;;;;;;;;;;;;5121328;28;20376;-87
2022/03/04 15:03:12;;;;;;;;;;;;;;;;;;5106123;28;19923;-87
2022/03/04 15:05:38;;;;;;;;;;;;;;;;;;5101288;28;19916;-87
2022/03/04 15:08:05;;;;;;;;;;;;;;;;;;5084671;28;19950;-87
2022/03/04 15:10:31;;;;;;;;;;;;;;;;;;5100753;28;19916;-87
2022/03/04 15:12:57;;;;;;;;;;;;;;;;;;5129527;27;19915;-89
2022/03/04 15:15:26;;;;;;;;;;;;;;;;;;5129479;27;19922;-89
2022/03/04 15:17:51;;;;;;;;;;;;;;;;;;5135521;27;19922;-87
2022/03/04 15:20:17;;;;;;;;;;;;;;;;;;5123971;28;19915;-87
2022/03/04 15:22:45;;;;;;;;;;;;;;;;;;5121983;28;20014;-87
2022/03/04 15:25:11;;;;;;;;;;;;;;;;;;5104718;28;19919;-87
2022/03/04 15:27:40;;;;;;;;;;;;;;;;;;5122035;28;19912;-87
2022/03/04 15:30:08;;;;;;;;;;;;;;;;;;5103681;28;19915;-86
2022/03/04 15:32:35;;;;;;;;;;;;;;;;;;5103155;28;19920;-86
2022/03/04 15:35:00;;;;;;;;;;;;;;;;;;5102959;28;19916;-87
2022/03/04 15:37:27;;;;;;;;;;;;;;;;;;5120923;28;20018;-87
2022/03/04 15:39:52;;;;;;;;;;;;;;;;;;5119585;28;19942;-87
2022/03/04 15:42:18;;;;;;;;;;;;;;;;;;5102305;28;19920;-86
2022/03/04 15:44:43;;;;;;;;;;;;;;;;;;5102235;28;20293;-84
2022/03/04 15:47:09;;;;;;;;;;;;;;;;;;5122900;27;19922;-81
2022/03/04 15:49:34;;;;;;;;;;;;;;;;;;5142554;27;19985;-81
2022/03/04 15:51:59;;;;;;;;;;;;;;;;;;5142926;27;19915;-81
2022/03/04 15:54:25;;;;;;;;;;;;;;;;;;5142634;27;19915;-81
2022/03/04 15:56:51;;;;;;;;;;;;;;;;;;5125057;27;19916;-81
2022/03/04 15:59:17;;;;;;;;;;;;;;;;;;5106326;28;19927;-81
2022/03/04 16:01:43;;;;;;;;;;;;;;;;;;5101762;28;19952;-82
2022/03/04 16:04:10;;;;;;;;;;;;;;;;;;5100900;28;19921;-81
2022/03/04 16:06:36;;;;;;;;;;;;;;;;;;5099933;28;19916;-81
2022/03/04 16:09:01;;;;;;;;;;;;;;;;;;5100823;28;20490;-80
2022/03/04 16:11:26;;;;;;;;;;;;;;;;;;5099947;28;19923;-80
2022/03/04 16:13:52;;;;;;;;;;;;;;;;;;5101285;28;20380;-84
2022/03/04 16:16:18;;;;;;;;;;;;;;;;;;5116897;28;19916;-81
2022/03/04 16:18:47;;;;;;;;;;;;;;;;;;5101173;28;20361;-82
2022/03/04 16:21:13;;;;;;;;;;;;;;;;;;5099307;28;20442;-80
2022/03/04 16:23:40;;;;;;;;;;;;;;;;;;5100187;28;19916;-79
2022/03/04 16:26:09;;;;;;;;;;;;;;;;;;5104781;28;19930;-79
2022/03/04 16:28:35;;;;;;;;;;;;;;;;;;5112830;28;19998;-79
2022/03/04 16:31:01;;;;;;;;;;;;;;;;;;5099854;28;20416;-79
2022/03/04 16:33:26;;;;;;;;;;;;;;;;;;5099923;28;19974;-79
2022/03/04 16:35:51;;;;;;;;;;;;;;;;;;5099391;28;19920;-79
2022/03/04 16:38:19;;;;;;;;;;;;;;;;;;5097784;28;19938;-79
2022/03/04 16:40:45;;;;;;;;;;;;;;;;;;5114582;28;19971;-79
2022/03/04 16:43:11;;;;;;;;;;;;;;;;;;5118356;28;19916;-79
2022/03/04 16:45:37;;;;;;;;;;;;;;;;;;5114608;28;19912;-79